createdAt,value
2022-08-26T00:00:56.843Z,8.52
2022-08-26T00:03:26.621Z,8.95
2022-08-26T00:05:56.931Z,8.95
2022-08-26T00:08:25.681Z,8.75
2022-08-26T00:10:54.059Z,8.95
2022-08-26T00:13:22.757Z,8.55
2022-08-26T00:15:51.575Z,8.82
2022-08-26T00:18:22.698Z,8.68
2022-08-26T00:20:52.093Z,8.50
2022-08-26T00:23:24.237Z,8.88
2022-08-26T00:25:53.545Z,9.27
2022-08-26T00:28:22.857Z,9.07
2022-08-26T00:30:54.369Z,8.95
2022-08-26T00:33:27.186Z,9.75
2022-08-26T00:36:04.106Z,9.48
2022-08-26T00:38:33.932Z,8.68
2022-08-26T00:41:03.000Z,9.18
2022-08-26T00:43:47.494Z,9.10
2022-08-26T00:46:23.617Z,8.90
2022-08-26T00:48:59.991Z,8.82
2022-08-26T00:51:34.850Z,9.95
2022-08-26T00:54:10.594Z,9.43
2022-08-26T00:56:45.611Z,9.57
2022-08-26T00:59:17.587Z,9.52
2022-08-26T01:01:51.616Z,8.68
2022-08-26T01:04:23.929Z,9.25
2022-08-26T01:06:55.947Z,9.88
2022-08-26T01:09:27.297Z,8.80
2022-08-26T01:12:00.706Z,9.43
2022-08-26T01:14:36.754Z,8.70
2022-08-26T01:17:07.406Z,9.45
2022-08-26T01:19:44.819Z,10.13
2022-08-26T01:22:18.507Z,9.20
2022-08-26T01:24:50.930Z,9.30
2022-08-26T01:27:22.279Z,8.73
2022-08-26T01:29:52.871Z,9.38
2022-08-26T01:32:25.767Z,8.68
2022-08-26T01:34:56.924Z,9.57
2022-08-26T01:37:31.225Z,10.40
2022-08-26T01:40:01.211Z,9.80
2022-08-26T01:42:30.139Z,9.43
2022-08-26T01:45:02.425Z,9.02
2022-08-26T01:47:34.680Z,9.25
2022-08-26T01:50:07.593Z,10.05
2022-08-26T01:52:40.448Z,9.30
2022-08-26T01:55:15.420Z,9.20
2022-08-26T01:58:03.808Z,9.43
2022-08-26T02:00:32.584Z,9.10
2022-08-26T02:03:17.892Z,10.15
2022-08-26T02:05:56.961Z,10.55
2022-08-26T02:08:34.504Z,10.10
2022-08-26T02:11:08.690Z,9.07
2022-08-26T02:13:43.010Z,10.05
2022-08-26T02:16:14.702Z,9.75
2022-08-26T02:18:44.987Z,10.02
2022-08-26T02:21:25.067Z,9.52
2022-08-26T02:23:56.217Z,9.77
2022-08-26T02:26:27.276Z,10.10
2022-08-26T02:29:01.348Z,9.35
2022-08-26T02:31:31.799Z,9.68
2022-08-26T02:34:10.859Z,9.85
2022-08-26T02:36:39.575Z,10.00
2022-08-26T02:39:08.477Z,10.73
2022-08-26T02:41:45.325Z,10.60
2022-08-26T02:44:14.009Z,9.80
2022-08-26T02:46:47.209Z,9.60
2022-08-26T02:49:19.899Z,10.10
2022-08-26T02:51:51.030Z,10.18
2022-08-26T02:54:21.897Z,9.35
2022-08-26T02:56:52.166Z,10.45
2022-08-26T02:59:20.659Z,11.00
2022-08-26T03:01:56.379Z,10.70
2022-08-26T03:04:26.722Z,10.52
2022-08-26T03:06:59.947Z,9.95
2022-08-26T03:09:38.665Z,10.05
2022-08-26T03:12:11.791Z,10.48
2022-08-26T03:14:42.741Z,10.07
2022-08-26T03:17:11.194Z,10.50
2022-08-26T03:19:41.751Z,10.38
2022-08-26T03:22:10.264Z,10.40
2022-08-26T03:24:41.954Z,9.68
2022-08-26T03:27:16.136Z,10.60
2022-08-26T03:30:06.004Z,10.77
2022-08-26T03:32:34.242Z,10.18
2022-08-26T03:35:04.659Z,9.90
2022-08-26T03:37:34.389Z,10.18
2022-08-26T03:40:03.779Z,10.27
2022-08-26T03:42:38.865Z,10.38
2022-08-26T03:45:21.949Z,11.27
2022-08-26T03:47:56.128Z,10.00
2022-08-26T03:50:35.818Z,10.48
2022-08-26T03:53:13.277Z,10.35
2022-08-26T03:55:43.361Z,9.63
2022-08-26T03:58:15.782Z,10.40
2022-08-26T04:00:44.001Z,9.77
2022-08-26T04:03:35.871Z,10.30
2022-08-26T04:06:04.306Z,10.82
2022-08-26T04:08:35.352Z,9.90
2022-08-26T04:11:04.064Z,10.93
2022-08-26T04:13:35.646Z,10.23
2022-08-26T04:16:06.869Z,10.60
2022-08-26T04:18:46.543Z,10.52
2022-08-26T04:21:16.083Z,11.25
2022-08-26T04:23:47.053Z,10.40
2022-08-26T04:26:21.541Z,11.05
2022-08-26T04:28:59.127Z,10.65
2022-08-26T04:31:31.021Z,10.88
2022-08-26T04:34:00.899Z,10.38
2022-08-26T04:36:29.950Z,10.20
2022-08-26T04:39:01.715Z,10.73
2022-08-26T04:41:31.553Z,10.73
2022-08-26T04:44:03.334Z,9.88
2022-08-26T04:46:35.005Z,11.48
2022-08-26T04:49:03.987Z,12.07
2022-08-26T04:51:34.425Z,11.23
2022-08-26T04:54:03.942Z,11.65
2022-08-26T04:56:35.406Z,11.48
2022-08-26T04:59:16.858Z,10.32
2022-08-26T05:01:51.743Z,10.88
2022-08-26T05:04:23.208Z,10.90
2022-08-26T05:06:59.710Z,11.25
2022-08-26T05:09:34.252Z,11.15
2022-08-26T05:12:04.590Z,11.20
2022-08-26T05:14:36.567Z,11.18
2022-08-26T05:17:05.137Z,10.80
2022-08-26T05:19:38.592Z,11.57
2022-08-26T05:22:13.184Z,11.13
2022-08-26T05:24:43.335Z,11.48
2022-08-26T05:27:19.631Z,10.85
2022-08-26T05:29:54.597Z,11.13
2022-08-26T05:32:28.043Z,11.60
2022-08-26T05:34:58.539Z,11.98
2022-08-26T05:37:28.273Z,10.85
2022-08-26T05:40:03.132Z,11.57
2022-08-26T05:42:39.594Z,11.70
2022-08-26T05:45:16.943Z,10.85
2022-08-26T05:47:46.006Z,10.27
2022-08-26T05:50:22.945Z,10.38
2022-08-26T05:52:54.545Z,10.43
2022-08-26T05:55:23.913Z,11.63
2022-08-26T05:57:55.389Z,10.32
2022-08-26T06:00:41.694Z,11.90
2022-08-26T06:03:14.319Z,10.50
2022-08-26T06:05:45.709Z,10.35
2022-08-26T06:08:15.167Z,10.02
2022-08-26T06:10:49.088Z,10.88
2022-08-26T06:13:21.044Z,10.85
2022-08-26T06:15:59.887Z,10.90
2022-08-26T06:18:32.981Z,11.70
2022-08-26T06:21:16.893Z,11.23
2022-08-26T06:24:04.917Z,10.73
2022-08-26T06:26:34.116Z,11.63
2022-08-26T06:29:06.141Z,10.55
2022-08-26T06:31:41.284Z,10.85
2022-08-26T06:34:10.983Z,10.98
2022-08-26T06:36:43.852Z,10.13
2022-08-26T06:39:24.018Z,10.30
2022-08-26T06:41:52.436Z,11.52
2022-08-26T06:44:21.294Z,10.32
2022-08-26T06:46:53.680Z,10.80
2022-08-26T06:49:26.682Z,10.30
2022-08-26T06:52:03.924Z,10.73
2022-08-26T06:54:36.650Z,9.93
2022-08-26T06:57:11.720Z,9.57
2022-08-26T06:59:44.322Z,9.75
2022-08-26T07:02:17.068Z,9.32
2022-08-26T07:04:48.085Z,9.45
2022-08-26T07:07:21.940Z,8.52
2022-08-26T07:09:52.987Z,8.88
2022-08-26T07:12:27.214Z,8.23
2022-08-26T07:15:27.137Z,8.23
2022-08-26T07:19:01.151Z,8.52
2022-08-26T07:21:28.354Z,8.85
2022-08-26T07:24:01.232Z,8.45
2022-08-26T07:26:31.839Z,8.02
2022-08-26T07:29:08.874Z,8.48
2022-08-26T07:31:53.752Z,8.32
2022-08-26T07:34:28.368Z,8.05
2022-08-26T07:36:58.818Z,7.82
2022-08-26T07:39:31.505Z,8.27
2022-08-26T07:42:07.590Z,7.97
2022-08-26T07:44:40.434Z,8.60
2022-08-26T07:47:24.913Z,8.48
2022-08-26T07:49:56.388Z,8.43
2022-08-26T07:52:30.221Z,8.85
2022-08-26T07:55:10.793Z,8.18
2022-08-26T07:57:46.234Z,9.05
2022-08-26T08:00:31.533Z,9.05
2022-08-26T08:03:03.625Z,8.10
2022-08-26T08:05:36.506Z,7.47
2022-08-26T08:08:27.965Z,8.27
2022-08-26T08:11:01.485Z,7.32
2022-08-26T08:13:55.978Z,7.72
2022-08-26T08:16:32.410Z,7.70
2022-08-26T08:20:03.066Z,7.78
2022-08-26T08:22:40.455Z,7.97
2022-08-26T08:25:12.924Z,7.75
2022-08-26T08:27:47.254Z,7.72
2022-08-26T08:30:24.469Z,7.72
2022-08-26T08:33:10.746Z,7.63
2022-08-26T08:36:03.684Z,8.05
2022-08-26T08:39:04.634Z,7.50
2022-08-26T08:42:27.701Z,7.88
2022-08-26T08:45:05.811Z,7.72
2022-08-26T08:47:51.210Z,7.53
2022-08-26T08:50:50.243Z,7.53
2022-08-26T08:53:47.102Z,7.10
2022-08-26T08:56:26.275Z,7.07
2022-08-26T08:59:20.998Z,8.75
2022-08-26T09:02:08.591Z,8.00
2022-08-26T09:05:15.304Z,8.05
2022-08-26T09:07:51.439Z,7.70
2022-08-26T09:10:32.414Z,7.18
2022-08-26T09:13:06.228Z,7.30
2022-08-26T09:16:02.077Z,8.05
2022-08-26T09:18:46.624Z,8.13
2022-08-26T09:21:40.394Z,8.13
2022-08-26T09:24:13.790Z,7.07
2022-08-26T09:26:54.877Z,7.15
2022-08-26T09:29:27.509Z,6.97
2022-08-26T09:32:24.989Z,6.35
2022-08-26T09:35:02.333Z,7.05
2022-08-26T09:40:27.982Z,6.63
2022-08-26T09:43:15.382Z,6.25
2022-08-26T09:45:59.716Z,6.25
2022-08-26T09:48:40.554Z,6.93
2022-08-26T09:51:45.948Z,7.20
2022-08-26T09:54:49.974Z,7.03
2022-08-26T09:57:28.942Z,5.82
2022-08-26T10:00:05.572Z,6.50
2022-08-26T10:04:36.899Z,6.90
2022-08-26T10:06:41.811Z,6.03
2022-08-26T10:09:57.004Z,6.60
2022-08-26T10:13:17.967Z,6.57
2022-08-26T10:15:57.157Z,6.63
2022-08-26T10:18:56.854Z,6.25
2022-08-26T10:21:53.111Z,5.95
2022-08-26T10:24:54.925Z,5.97
2022-08-26T10:27:53.864Z,6.35
2022-08-26T10:30:36.344Z,6.20
2022-08-26T10:33:17.929Z,6.55
2022-08-26T10:36:05.945Z,6.80
2022-08-26T10:39:01.959Z,6.75
2022-08-26T10:41:54.427Z,6.88
2022-08-26T10:44:26.216Z,5.80
2022-08-26T10:47:17.705Z,6.53
2022-08-26T10:49:48.942Z,6.45
2022-08-26T10:52:45.311Z,6.18
2022-08-26T10:55:38.867Z,5.75
2022-08-26T10:58:41.739Z,5.72
2022-08-26T11:02:04.093Z,6.15
2022-08-26T11:05:01.429Z,6.22
2022-08-26T11:07:54.955Z,5.68
2022-08-26T11:11:02.076Z,5.22
2022-08-26T11:14:14.010Z,5.72
2022-08-26T11:16:56.666Z,5.53
2022-08-26T11:20:13.405Z,5.72
2022-08-26T11:26:55.664Z,5.90
2022-08-26T11:30:11.269Z,6.13
2022-08-26T11:33:02.787Z,5.40
2022-08-26T11:35:53.951Z,5.80
2022-08-26T11:38:34.209Z,5.70
2022-08-26T11:41:15.462Z,5.82
2022-08-26T11:43:45.791Z,5.75
2022-08-26T11:46:41.097Z,4.95
2022-08-26T11:52:25.372Z,4.97
2022-08-26T11:55:06.569Z,4.25
2022-08-26T11:57:41.505Z,4.30
2022-08-26T12:00:36.956Z,4.90
2022-08-26T12:03:21.427Z,4.47
2022-08-26T12:06:06.286Z,4.47
2022-08-26T12:08:50.156Z,4.32
2022-08-26T12:11:47.573Z,4.60
2022-08-26T12:14:24.718Z,4.68
2022-08-26T12:17:14.867Z,4.65
2022-08-26T12:20:57.404Z,5.10
2022-08-26T12:23:11.135Z,5.18
2022-08-26T12:26:05.418Z,5.82
2022-08-26T12:28:55.880Z,5.85
2022-08-26T12:31:38.022Z,5.18
2022-08-26T12:34:24.104Z,5.10
2022-08-26T12:37:07.166Z,5.13
2022-08-26T12:39:39.390Z,5.68
2022-08-26T12:42:46.151Z,5.15
2022-08-26T12:49:04.135Z,5.82
2022-08-26T12:53:54.252Z,5.88
2022-08-26T12:55:26.570Z,5.80
2022-08-26T12:58:12.792Z,5.82
2022-08-26T13:00:48.502Z,5.75
2022-08-26T13:03:44.538Z,6.10
2022-08-26T13:06:19.151Z,5.53
2022-08-26T13:08:51.073Z,6.28
2022-08-26T13:11:34.839Z,6.13
2022-08-26T13:14:18.465Z,6.30
2022-08-26T13:16:55.433Z,6.07
2022-08-26T13:19:32.323Z,6.25
2022-08-26T13:22:06.352Z,6.13
2022-08-26T13:25:02.570Z,5.97
2022-08-26T13:27:51.285Z,5.88
2022-08-26T13:30:24.046Z,5.85
2022-08-26T13:32:58.508Z,5.95
2022-08-26T13:35:28.540Z,5.70
2022-08-26T13:37:57.489Z,5.82
2022-08-26T13:40:26.320Z,6.25
2022-08-26T13:42:58.729Z,5.82
2022-08-26T13:45:32.510Z,5.50
2022-08-26T13:48:01.597Z,6.20
2022-08-26T13:50:30.485Z,6.00
2022-08-26T13:52:59.101Z,6.20
2022-08-26T13:55:28.065Z,5.82
2022-08-26T13:58:03.782Z,5.80
2022-08-26T14:00:37.805Z,5.68
2022-08-26T14:03:11.281Z,5.90
2022-08-26T14:05:41.754Z,5.97
2022-08-26T14:08:17.555Z,6.10
2022-08-26T14:13:20.910Z,5.40
2022-08-26T14:15:51.274Z,8.80
2022-08-26T14:18:29.979Z,6.20
2022-08-26T14:20:59.292Z,6.10
2022-08-26T14:23:28.252Z,6.90
2022-08-26T14:25:56.716Z,9.10
2022-08-26T14:28:26.611Z,8.50
2022-08-26T14:30:57.020Z,9.98
2022-08-26T14:33:27.364Z,8.90
2022-08-26T14:36:17.605Z,9.70
2022-08-26T14:38:45.906Z,8.05
2022-08-26T14:41:15.208Z,8.25
2022-08-26T14:43:50.168Z,8.35
2022-08-26T14:46:19.804Z,9.02
2022-08-26T14:48:48.475Z,7.65
2022-08-26T14:51:16.708Z,7.60
2022-08-26T14:54:02.322Z,8.10
2022-08-26T14:56:34.454Z,9.82
2022-08-26T14:59:04.149Z,8.00
2022-08-26T15:01:36.877Z,8.52
2022-08-26T15:04:07.520Z,7.63
2022-08-26T15:07:19.088Z,7.82
2022-08-26T15:09:56.507Z,7.90
2022-08-26T15:12:45.061Z,7.57
2022-08-26T15:15:19.075Z,7.70
2022-08-26T15:17:55.398Z,7.13
2022-08-26T15:20:28.827Z,7.05
2022-08-26T15:22:58.990Z,6.57
2022-08-26T15:25:38.676Z,6.45
2022-08-26T15:28:07.383Z,7.05
2022-08-26T15:30:38.110Z,6.93
2022-08-26T15:33:06.705Z,6.68
2022-08-26T15:35:44.380Z,7.03
2022-08-26T15:38:13.540Z,7.38
2022-08-26T15:40:43.214Z,7.35
2022-08-26T15:43:27.672Z,7.18
2022-08-26T15:45:58.947Z,6.85
2022-08-26T15:48:27.517Z,7.38
2022-08-26T15:50:57.337Z,6.45
2022-08-26T15:53:26.949Z,6.70
2022-08-26T15:55:59.357Z,6.85
2022-08-26T15:58:29.499Z,7.10
2022-08-26T16:01:00.364Z,7.07
2022-08-26T16:03:31.065Z,7.05
2022-08-26T16:06:03.016Z,6.57
2022-08-26T16:08:36.662Z,6.78
2022-08-26T16:11:09.749Z,6.97
2022-08-26T16:13:54.076Z,6.80
2022-08-26T16:16:27.461Z,6.85
2022-08-26T16:18:56.521Z,5.93
2022-08-26T16:21:28.631Z,6.05
2022-08-26T16:23:57.707Z,11.70
2022-08-26T16:26:28.486Z,10.75
2022-08-26T16:29:04.986Z,6.85
2022-08-26T16:31:38.029Z,6.75
2022-08-26T16:34:07.416Z,6.90
2022-08-26T16:36:37.468Z,6.72
2022-08-26T16:39:08.796Z,6.05
2022-08-26T16:41:44.328Z,6.55
2022-08-26T16:44:17.550Z,6.72
2022-08-26T16:46:50.075Z,6.70
2022-08-26T16:49:26.993Z,6.15
2022-08-26T16:51:58.597Z,6.25
2022-08-26T16:54:29.411Z,6.90
2022-08-26T16:56:57.951Z,7.22
2022-08-26T16:59:26.421Z,7.18
2022-08-26T17:01:58.408Z,6.80
2022-08-26T17:04:29.362Z,7.00
2022-08-26T17:06:58.112Z,6.90
2022-08-26T17:09:27.333Z,7.10
2022-08-26T17:11:58.817Z,10.02
2022-08-26T17:14:30.625Z,7.60
2022-08-26T17:17:00.666Z,9.43
2022-08-26T17:19:29.446Z,12.00
2022-08-26T17:22:16.048Z,10.02
2022-08-26T17:24:49.199Z,7.68
2022-08-26T17:27:19.722Z,8.60
2022-08-26T17:29:54.513Z,7.07
2022-08-26T17:32:28.352Z,6.90
2022-08-26T17:34:56.907Z,6.35
2022-08-26T17:37:28.211Z,6.97
2022-08-26T17:40:00.015Z,6.78
2022-08-26T17:42:31.422Z,7.13
2022-08-26T17:45:02.678Z,7.10
2022-08-26T17:47:42.992Z,6.97
2022-08-26T17:50:17.705Z,7.63
2022-08-26T17:52:46.775Z,8.85
2022-08-26T17:55:17.219Z,7.30
2022-08-26T17:57:53.240Z,9.35
2022-08-26T18:00:26.487Z,11.77
2022-08-26T18:02:58.787Z,10.55
2022-08-26T18:05:28.310Z,13.13
2022-08-26T18:07:59.988Z,11.57
2022-08-26T18:10:32.638Z,9.82
2022-08-26T18:13:04.915Z,9.65
2022-08-26T18:15:33.347Z,10.88
2022-08-26T18:18:04.157Z,12.63
2022-08-26T18:20:32.730Z,11.50
2022-08-26T18:23:04.185Z,18.15
2022-08-26T18:25:33.294Z,18.73
2022-08-26T18:28:04.852Z,11.48
2022-08-26T18:30:37.928Z,10.07
2022-08-26T18:33:22.926Z,7.53
2022-08-26T18:35:54.744Z,7.50
2022-08-26T18:38:28.284Z,7.07
2022-08-26T18:41:00.386Z,7.90
2022-08-26T18:43:30.757Z,7.43
2022-08-26T18:46:07.713Z,8.48
2022-08-26T18:48:41.148Z,7.97
2022-08-26T18:51:12.594Z,8.65
2022-08-26T18:53:42.002Z,7.53
2022-08-26T18:56:10.232Z,7.78
2022-08-26T18:58:38.745Z,7.57
2022-08-26T19:01:07.765Z,7.93
2022-08-26T19:03:39.959Z,7.95
2022-08-26T19:06:08.973Z,7.97
2022-08-26T19:08:37.287Z,7.50
2022-08-26T19:11:12.924Z,7.85
2022-08-26T19:13:42.586Z,7.32
2022-08-26T19:16:17.773Z,7.57
2022-08-26T19:18:47.764Z,7.13
2022-08-26T19:21:16.413Z,6.43
2022-08-26T19:23:44.789Z,6.03
2022-08-26T19:26:15.714Z,5.65
2022-08-26T19:28:49.433Z,5.65
2022-08-26T19:31:18.053Z,6.25
2022-08-26T19:33:47.726Z,6.20
2022-08-26T19:36:19.832Z,6.10
2022-08-26T19:38:48.394Z,6.00
2022-08-26T19:41:18.893Z,6.10
2022-08-26T19:43:47.592Z,5.70
2022-08-26T19:46:18.125Z,5.20
2022-08-26T19:48:51.757Z,5.68
2022-08-26T19:51:27.411Z,4.85
2022-08-26T19:53:57.670Z,5.03
2022-08-26T19:56:27.991Z,4.72
2022-08-26T19:58:57.193Z,4.63
2022-08-26T20:01:26.199Z,6.45
2022-08-26T20:06:24.516Z,7.30
2022-08-26T20:08:53.985Z,7.57
2022-08-26T20:11:25.356Z,8.35
2022-08-26T20:13:54.312Z,8.88
2022-08-26T20:16:22.868Z,8.77
2022-08-26T20:19:12.791Z,8.98
2022-08-26T20:21:42.587Z,9.63
2022-08-26T20:24:13.850Z,9.55
2022-08-26T20:26:44.168Z,10.07
2022-08-26T20:29:14.948Z,9.85
2022-08-26T20:31:48.351Z,9.82
2022-08-26T20:34:19.751Z,9.23
2022-08-26T20:37:01.294Z,9.95
2022-08-26T20:39:30.929Z,10.35
2022-08-26T20:41:59.668Z,10.23
2022-08-26T20:44:28.399Z,10.25
2022-08-26T20:46:56.694Z,9.75
2022-08-26T20:49:31.769Z,9.52
2022-08-26T20:52:02.301Z,10.18
2022-08-26T20:54:30.991Z,9.38
2022-08-26T20:57:01.326Z,9.13
2022-08-26T20:59:30.080Z,9.15
2022-08-26T21:01:58.390Z,9.00
2022-08-26T21:04:29.281Z,8.80
2022-08-26T21:06:58.365Z,9.57
2022-08-26T21:09:29.925Z,10.82
2022-08-26T21:11:59.248Z,9.55
2022-08-26T21:14:28.475Z,9.90
2022-08-26T21:16:58.503Z,10.32
2022-08-26T21:19:28.696Z,10.18
2022-08-26T21:21:59.470Z,10.02
2022-08-26T21:24:30.988Z,10.57
2022-08-26T21:27:00.067Z,11.57
2022-08-26T21:29:28.560Z,12.10
2022-08-26T21:32:01.801Z,11.10
2022-08-26T21:34:33.238Z,11.68
2022-08-26T21:37:05.565Z,11.35
2022-08-26T21:39:41.736Z,12.15
2022-08-26T21:42:10.144Z,11.85
2022-08-26T21:44:41.064Z,11.07
2022-08-26T21:47:13.170Z,10.63
2022-08-26T21:49:44.228Z,10.85
2022-08-26T21:52:13.060Z,10.02
2022-08-26T21:54:49.301Z,9.73
2022-08-26T21:57:18.760Z,10.10
2022-08-26T21:59:48.150Z,9.43
2022-08-26T22:02:16.576Z,9.32
2022-08-26T22:04:50.207Z,9.77
2022-08-26T22:07:21.377Z,9.55
2022-08-26T22:09:49.651Z,9.48
2022-08-26T22:12:19.046Z,10.30
2022-08-26T22:14:48.120Z,11.02
2022-08-26T22:17:17.088Z,9.93
2022-08-26T22:19:46.908Z,9.68
2022-08-26T22:22:16.013Z,9.57
2022-08-26T22:24:44.461Z,9.73
2022-08-26T22:27:16.661Z,10.93
2022-08-26T22:29:46.602Z,11.52
2022-08-26T22:32:18.480Z,12.50
2022-08-26T22:34:53.840Z,11.65
2022-08-26T22:37:22.256Z,12.13
2022-08-26T22:39:50.686Z,12.18
2022-08-26T22:42:19.011Z,12.88
2022-08-26T22:44:47.703Z,12.05
2022-08-26T22:47:19.204Z,12.32
2022-08-26T22:49:47.974Z,11.13
2022-08-26T22:52:19.786Z,12.32
2022-08-26T22:54:49.267Z,12.48
2022-08-26T22:57:18.015Z,11.13
2022-08-26T22:59:51.534Z,11.30
2022-08-26T23:02:29.206Z,10.98
2022-08-26T23:04:59.429Z,10.40
2022-08-26T23:07:29.219Z,9.38
2022-08-26T23:10:01.283Z,9.23
2022-08-26T23:12:32.627Z,8.73
2022-08-26T23:15:03.806Z,8.32
2022-08-26T23:17:32.814Z,7.80
2022-08-26T23:20:04.292Z,8.60
2022-08-26T23:22:36.864Z,9.10
2022-08-26T23:25:13.617Z,9.00
2022-08-26T23:27:43.845Z,9.43
2022-08-26T23:30:15.979Z,10.40
2022-08-26T23:32:44.479Z,10.68
2022-08-26T23:35:14.220Z,11.13
2022-08-26T23:37:48.062Z,11.15
2022-08-26T23:40:20.185Z,10.98
2022-08-26T23:42:58.798Z,11.65
2022-08-26T23:45:28.667Z,12.23
2022-08-26T23:47:57.503Z,10.98
2022-08-26T23:50:44.503Z,10.80
2022-08-26T23:53:21.265Z,10.48
2022-08-26T23:55:54.177Z,9.93
2022-08-26T23:58:23.130Z,9.50
